createdAt,value
2018-07-23T00:00:14.922Z,21.67
2018-07-23T00:01:14.899Z,21.61
2018-07-23T00:02:14.863Z,21.57
2018-07-23T00:03:14.831Z,21.58
2018-07-23T00:04:14.799Z,21.66
2018-07-23T00:05:14.772Z,21.57
2018-07-23T00:06:14.741Z,21.52
2018-07-23T00:07:14.709Z,21.46
2018-07-23T00:08:14.679Z,21.42
2018-07-23T00:09:14.645Z,21.43
2018-07-23T00:10:14.614Z,21.46
2018-07-23T00:11:14.583Z,21.46
2018-07-23T00:12:14.549Z,21.42
2018-07-23T00:13:14.526Z,21.42
2018-07-23T00:14:14.497Z,21.35
2018-07-23T00:15:14.460Z,21.36
2018-07-23T00:16:14.430Z,21.22
2018-07-23T00:17:14.393Z,21.29
2018-07-23T00:18:14.363Z,21.22
2018-07-23T00:19:14.335Z,21.25
2018-07-23T00:20:14.309Z,21.32
2018-07-23T00:21:14.277Z,21.29
2018-07-23T00:22:14.239Z,21.29
2018-07-23T00:23:14.208Z,21.22
2018-07-23T00:24:14.179Z,21.35
2018-07-23T00:25:14.150Z,21.24
2018-07-23T00:26:14.116Z,21.21
2018-07-23T00:27:14.085Z,21.29
2018-07-23T00:28:14.058Z,21.29
2018-07-23T00:29:14.021Z,21.27
2018-07-23T00:30:13.989Z,21.24
2018-07-23T00:31:13.958Z,21.21
2018-07-23T00:32:13.925Z,21.22
2018-07-23T00:33:13.899Z,21.14
2018-07-23T00:34:13.865Z,21.09
2018-07-23T00:35:13.834Z,21.17
2018-07-23T00:36:13.802Z,21.06
2018-07-23T00:37:13.776Z,21.02
2018-07-23T00:38:13.741Z,20.97
2018-07-23T00:39:13.709Z,21.00
2018-07-23T00:40:13.682Z,20.95
2018-07-23T00:41:13.643Z,20.90
2018-07-23T00:42:13.613Z,20.75
2018-07-23T00:43:13.583Z,20.56
2018-07-23T00:44:13.549Z,20.55
2018-07-23T00:45:13.524Z,20.43
2018-07-23T00:46:13.493Z,20.43
2018-07-23T00:47:13.461Z,20.43
2018-07-23T00:48:13.436Z,20.41
2018-07-23T00:49:13.393Z,20.37
2018-07-23T00:50:13.364Z,20.43
2018-07-23T00:51:13.333Z,20.47
2018-07-23T00:52:13.303Z,20.50
2018-07-23T00:53:13.268Z,20.50
2018-07-23T00:54:13.236Z,20.48
2018-07-23T00:55:13.205Z,20.43
2018-07-23T00:56:13.173Z,20.41
2018-07-23T00:57:13.148Z,20.43
2018-07-23T00:58:13.116Z,20.39
2018-07-23T00:59:13.082Z,20.26
2018-07-23T01:00:13.052Z,20.25
2018-07-23T01:01:13.017Z,20.29
2018-07-23T01:02:12.985Z,20.34
2018-07-23T01:03:12.954Z,20.40
2018-07-23T01:04:12.922Z,20.26
2018-07-23T01:05:12.894Z,20.24
2018-07-23T01:06:12.865Z,20.26
2018-07-23T01:07:12.828Z,20.21
2018-07-23T01:08:12.795Z,20.19
2018-07-23T01:09:12.768Z,20.24
2018-07-23T01:10:12.736Z,20.18
2018-07-23T01:11:12.705Z,20.18
2018-07-23T01:12:12.675Z,20.19
2018-07-23T01:13:12.640Z,20.25
2018-07-23T01:14:12.607Z,20.29
2018-07-23T01:15:12.575Z,20.32
2018-07-23T01:16:12.543Z,20.39
2018-07-23T01:17:12.516Z,20.44
2018-07-23T01:18:12.482Z,20.47
2018-07-23T01:19:12.450Z,20.41
2018-07-23T01:20:12.421Z,20.52
2018-07-23T01:21:12.387Z,20.51
2018-07-23T01:22:12.354Z,20.51
2018-07-23T01:23:12.324Z,20.50
2018-07-23T01:24:12.299Z,20.51
2018-07-23T01:25:12.256Z,20.52
2018-07-23T01:26:12.226Z,20.51
2018-07-23T01:27:12.196Z,20.51
2018-07-23T01:28:12.162Z,20.56
2018-07-23T01:29:12.135Z,20.52
2018-07-23T01:30:12.105Z,20.47
2018-07-23T01:31:12.074Z,20.48
2018-07-23T01:32:12.041Z,20.43
2018-07-23T01:33:12.003Z,20.31
2018-07-23T01:34:11.973Z,20.40
2018-07-23T01:35:11.942Z,20.31
2018-07-23T01:36:11.908Z,20.29
2018-07-23T01:37:11.883Z,20.31
2018-07-23T01:38:11.849Z,20.32
2018-07-23T01:39:11.819Z,20.37
2018-07-23T01:40:11.781Z,20.32
2018-07-23T01:41:11.755Z,20.28
2018-07-23T01:42:11.722Z,20.24
2018-07-23T01:43:11.690Z,20.18
2018-07-23T01:44:11.659Z,20.16
2018-07-23T01:45:11.621Z,20.11
2018-07-23T01:46:11.593Z,20.06
2018-07-23T01:47:11.561Z,20.11
2018-07-23T01:48:11.525Z,20.13
2018-07-23T01:49:11.502Z,20.06
2018-07-23T01:50:11.467Z,20.11
2018-07-23T01:51:11.435Z,20.11
2018-07-23T01:52:11.408Z,20.10
2018-07-23T01:53:11.369Z,20.16
2018-07-23T01:54:11.342Z,20.06
2018-07-23T01:55:11.309Z,20.04
2018-07-23T01:56:11.278Z,20.07
2018-07-23T01:57:11.242Z,20.03
2018-07-23T01:58:11.210Z,19.88
2018-07-23T01:59:11.179Z,19.82
2018-07-23T02:00:11.147Z,19.88
2018-07-23T02:01:11.119Z,19.85
2018-07-23T02:02:11.087Z,19.79
2018-07-23T02:03:11.054Z,19.69
2018-07-23T02:04:11.027Z,19.81
2018-07-23T02:05:10.987Z,19.82
2018-07-23T02:06:10.955Z,19.84
2018-07-23T02:07:10.932Z,19.88
2018-07-23T02:08:10.894Z,19.95
2018-07-23T02:09:10.866Z,19.82
2018-07-23T02:10:10.833Z,19.89
2018-07-23T02:11:10.796Z,19.96
2018-07-23T02:12:10.764Z,19.95
2018-07-23T02:13:10.736Z,20.02
2018-07-23T02:14:10.703Z,19.96
2018-07-23T02:15:10.673Z,20.04
2018-07-23T02:16:10.641Z,20.06
2018-07-23T02:17:10.603Z,20.04
2018-07-23T02:18:10.578Z,20.04
2018-07-23T02:19:10.540Z,20.04
2018-07-23T02:20:10.510Z,20.10
2018-07-23T02:21:10.480Z,20.13
2018-07-23T02:22:10.447Z,20.09
2018-07-23T02:23:10.417Z,20.10
2018-07-23T02:24:10.386Z,20.10
2018-07-23T02:25:10.347Z,20.06
2018-07-23T02:26:10.317Z,20.02
2018-07-23T02:27:10.289Z,19.95
2018-07-23T02:28:10.258Z,19.96
2018-07-23T02:29:10.219Z,19.94
2018-07-23T02:30:10.189Z,20.00
2018-07-23T02:31:10.157Z,19.86
2018-07-23T02:32:10.128Z,19.81
2018-07-23T02:33:10.099Z,19.70
2018-07-23T02:34:10.063Z,19.73
2018-07-23T02:35:10.030Z,19.76
2018-07-23T02:36:10.000Z,19.71
2018-07-23T02:37:09.963Z,19.67
2018-07-23T02:38:09.933Z,19.73
2018-07-23T02:39:09.908Z,19.71
2018-07-23T02:40:09.867Z,19.71
2018-07-23T02:41:09.840Z,19.70
2018-07-23T02:42:09.807Z,19.54
2018-07-23T02:43:09.774Z,19.52
2018-07-23T02:44:09.738Z,19.54
2018-07-23T02:45:09.712Z,19.47
2018-07-23T02:46:09.677Z,19.52
2018-07-23T02:47:09.646Z,19.45
2018-07-23T02:48:09.616Z,19.44
2018-07-23T02:49:09.576Z,19.45
2018-07-23T02:50:09.548Z,19.44
2018-07-23T02:51:09.516Z,19.52
2018-07-23T02:52:09.481Z,19.54
2018-07-23T02:53:09.453Z,19.54
2018-07-23T02:54:09.422Z,19.55
2018-07-23T02:55:09.389Z,19.54
2018-07-23T02:56:09.361Z,19.55
2018-07-23T02:57:09.319Z,19.63
2018-07-23T02:58:09.290Z,19.52
2018-07-23T02:59:09.261Z,19.52
2018-07-23T03:00:09.234Z,19.63
2018-07-23T03:01:09.190Z,19.51
2018-07-23T03:02:09.160Z,19.62
2018-07-23T03:03:09.129Z,19.69
2018-07-23T03:04:09.095Z,19.59
2018-07-23T03:05:09.067Z,19.70
2018-07-23T03:06:09.036Z,19.71
2018-07-23T03:07:09.005Z,19.71
2018-07-23T03:08:08.973Z,19.76
2018-07-23T03:09:08.934Z,19.64
2018-07-23T03:10:08.902Z,19.63
2018-07-23T03:11:08.871Z,19.63
2018-07-23T03:12:08.836Z,19.62
2018-07-23T03:13:08.812Z,19.52
2018-07-23T03:14:08.776Z,19.56
2018-07-23T03:15:08.744Z,19.54
2018-07-23T03:16:08.709Z,19.58
2018-07-23T03:17:08.681Z,19.58
2018-07-23T03:18:08.648Z,19.52
2018-07-23T03:19:08.616Z,19.59
2018-07-23T03:20:08.584Z,19.52
2018-07-23T03:21:08.546Z,19.55
2018-07-23T03:22:08.515Z,19.44
2018-07-23T03:23:08.484Z,19.54
2018-07-23T03:24:08.452Z,19.51
2018-07-23T03:25:08.421Z,19.58
2018-07-23T03:26:08.388Z,19.47
2018-07-23T03:27:08.355Z,19.41
2018-07-23T03:28:08.327Z,19.41
2018-07-23T03:29:08.286Z,19.49
2018-07-23T03:30:08.258Z,19.52
2018-07-23T03:31:08.226Z,19.41
2018-07-23T03:32:08.197Z,19.47
2018-07-23T03:33:08.159Z,19.52
2018-07-23T03:34:08.130Z,19.36
2018-07-23T03:35:08.095Z,19.33
2018-07-23T03:36:08.061Z,19.40
2018-07-23T03:37:08.032Z,19.45
2018-07-23T03:38:08.000Z,19.48
2018-07-23T03:39:07.964Z,19.34
2018-07-23T03:40:07.931Z,19.45
2018-07-23T03:41:07.904Z,19.37
2018-07-23T03:42:07.869Z,19.37
2018-07-23T03:43:07.836Z,19.39
2018-07-23T03:44:07.803Z,19.33
2018-07-23T03:45:07.768Z,19.41
2018-07-23T03:46:07.736Z,19.36
2018-07-23T03:47:07.706Z,19.34
2018-07-23T03:48:07.675Z,19.45
2018-07-23T03:49:07.642Z,19.39
2018-07-23T03:50:07.606Z,19.39
2018-07-23T03:51:07.574Z,19.33
2018-07-23T04:08:28.849Z,19.34
2018-07-23T04:09:28.783Z,19.34
2018-07-23T04:10:28.746Z,19.49
2018-07-23T04:11:28.705Z,19.41
2018-07-23T04:12:28.668Z,19.51
2018-07-23T04:13:28.633Z,19.51
2018-07-23T04:14:28.599Z,19.44
2018-07-23T04:15:28.563Z,19.44
2018-07-23T04:16:28.526Z,19.52
2018-07-23T04:17:28.547Z,19.58
2018-07-23T04:18:28.452Z,19.58
2018-07-23T04:19:28.418Z,19.54
2018-07-23T04:20:28.387Z,19.63
2018-07-23T04:21:28.354Z,19.59
2018-07-23T04:22:28.322Z,19.55
2018-07-23T04:23:28.292Z,19.54
2018-07-23T04:24:28.267Z,19.59
2018-07-23T04:25:28.216Z,19.54
2018-07-23T04:26:28.180Z,19.58
2018-07-23T04:27:28.154Z,19.62
2018-07-23T04:28:28.119Z,19.62
2018-07-23T04:29:28.084Z,19.63
2018-07-23T04:30:28.048Z,19.58
2018-07-23T04:31:28.014Z,19.64
2018-07-23T04:32:27.983Z,19.66
2018-07-23T04:33:27.951Z,19.64
2018-07-23T04:34:27.918Z,19.74
2018-07-23T04:35:27.888Z,19.81
2018-07-23T04:36:27.853Z,19.77
2018-07-23T04:37:27.819Z,19.89
2018-07-23T04:38:27.783Z,19.89
2018-07-23T04:39:27.750Z,19.88
2018-07-23T04:40:27.722Z,20.00
2018-07-23T04:41:27.688Z,20.03
2018-07-23T04:42:27.657Z,20.09
2018-07-23T04:43:27.619Z,20.07
2018-07-23T04:44:27.588Z,20.11
2018-07-23T04:45:27.556Z,20.10
2018-07-23T04:46:27.527Z,20.16
2018-07-23T04:47:27.493Z,20.21
2018-07-23T04:48:27.462Z,20.21
2018-07-23T04:49:27.424Z,20.16
2018-07-23T04:50:27.393Z,20.18
2018-07-23T04:51:27.361Z,20.24
2018-07-23T04:52:27.327Z,20.21
2018-07-23T04:53:27.297Z,20.19
2018-07-23T04:54:27.267Z,20.25
2018-07-23T04:55:27.235Z,20.14
2018-07-23T04:56:27.200Z,20.22
2018-07-23T04:57:27.166Z,20.21
2018-07-23T04:58:27.133Z,20.24
2018-07-23T04:59:27.105Z,20.22
2018-07-23T05:00:27.072Z,20.21
2018-07-23T05:01:27.036Z,20.18
2018-07-23T05:02:27.002Z,20.21
2018-07-23T05:03:26.971Z,20.04
2018-07-23T05:04:26.942Z,20.04
2018-07-23T05:05:26.908Z,20.11
2018-07-23T05:06:26.880Z,20.10
2018-07-23T05:07:26.846Z,20.18
2018-07-23T05:08:26.812Z,20.13
2018-07-23T05:09:26.779Z,20.09
2018-07-23T05:10:26.744Z,20.13
2018-07-23T05:11:26.715Z,20.07
2018-07-23T05:12:26.684Z,20.11
2018-07-23T05:13:26.651Z,20.16
2018-07-23T05:14:26.621Z,20.14
2018-07-23T05:15:26.584Z,20.18
2018-07-23T05:16:26.554Z,20.25
2018-07-23T05:17:26.525Z,20.19
2018-07-23T05:18:26.494Z,20.21
2018-07-23T05:19:26.463Z,20.16
2018-07-23T05:20:26.427Z,20.19
2018-07-23T05:21:26.392Z,20.19
2018-07-23T05:22:26.359Z,20.18
2018-07-23T05:23:26.328Z,20.21
2018-07-23T05:24:26.347Z,20.19
2018-07-23T05:25:26.265Z,20.19
2018-07-23T05:26:26.237Z,20.16
2018-07-23T05:27:26.205Z,20.22
2018-07-23T05:28:26.171Z,20.19
2018-07-23T05:29:26.135Z,20.19
2018-07-23T05:30:26.101Z,20.28
2018-07-23T05:31:26.075Z,20.24
2018-07-23T05:32:26.042Z,20.24
2018-07-23T05:33:26.008Z,20.31
2018-07-23T05:34:25.973Z,20.26
2018-07-23T05:35:25.940Z,20.40
2018-07-23T05:36:25.912Z,20.48
2018-07-23T05:37:25.883Z,20.44
2018-07-23T05:38:25.866Z,20.51
2018-07-23T05:39:25.819Z,20.58
2018-07-23T05:40:25.784Z,20.70
2018-07-23T05:41:25.750Z,20.74
2018-07-23T05:42:25.717Z,20.92
2018-07-23T05:43:25.685Z,20.96
2018-07-23T05:44:25.655Z,20.99
2018-07-23T05:45:25.625Z,20.96
2018-07-23T05:46:25.595Z,21.03
2018-07-23T05:47:25.556Z,21.07
2018-07-23T05:48:25.527Z,21.17
2018-07-23T05:49:25.501Z,21.25
2018-07-23T05:50:25.468Z,21.33
2018-07-23T05:51:25.439Z,21.27
2018-07-23T05:52:25.404Z,21.30
2018-07-23T05:53:25.369Z,21.32
2018-07-23T05:54:25.335Z,21.24
2018-07-23T05:55:25.303Z,21.37
2018-07-23T05:56:25.276Z,21.36
2018-07-23T05:57:25.244Z,21.43
2018-07-23T05:58:25.215Z,21.57
2018-07-23T05:59:25.183Z,21.69
2018-07-23T06:00:25.151Z,21.77
2018-07-23T06:01:25.121Z,21.88
2018-07-23T06:02:25.084Z,21.91
2018-07-23T06:03:25.061Z,22.06
2018-07-23T06:04:25.026Z,22.11
2018-07-23T06:05:24.991Z,22.13
2018-07-23T06:06:25.021Z,22.18
2018-07-23T06:07:24.927Z,22.26
2018-07-23T06:08:24.898Z,22.23
2018-07-23T06:09:24.869Z,22.29
2018-07-23T06:10:24.841Z,22.29
2018-07-23T06:11:24.809Z,22.45
2018-07-23T06:12:24.776Z,22.43
2018-07-23T06:13:24.756Z,22.54
2018-07-23T06:14:24.710Z,22.60
2018-07-23T06:15:24.682Z,22.63
2018-07-23T06:16:24.658Z,22.66
2018-07-23T06:17:24.657Z,22.73
2018-07-23T06:18:24.593Z,22.78
2018-07-23T06:19:24.556Z,22.72
2018-07-23T06:20:24.529Z,22.76
2018-07-23T06:21:24.502Z,22.76
2018-07-23T06:22:24.479Z,22.80
2018-07-23T06:23:24.439Z,22.66
2018-07-23T06:24:24.410Z,22.70
2018-07-23T06:25:24.375Z,22.69
2018-07-23T06:26:24.344Z,22.66
2018-07-23T06:27:24.316Z,22.68
2018-07-23T06:28:24.288Z,22.73
2018-07-23T06:29:24.250Z,22.63
2018-07-23T06:30:24.284Z,22.60
2018-07-23T06:31:24.191Z,22.60
2018-07-23T06:32:24.160Z,22.62
2018-07-23T06:33:24.135Z,22.60
2018-07-23T06:34:24.103Z,22.60
2018-07-23T06:35:24.073Z,22.55
2018-07-23T06:36:24.038Z,22.62
2018-07-23T06:37:24.013Z,22.59
2018-07-23T06:38:23.979Z,22.55
2018-07-23T06:39:23.949Z,22.55
2018-07-23T06:40:23.925Z,22.57
2018-07-23T06:41:23.889Z,22.54
2018-07-23T06:42:23.855Z,22.60
2018-07-23T06:43:23.895Z,22.53
2018-07-23T06:44:23.794Z,22.54
2018-07-23T06:45:23.772Z,22.44
2018-07-23T06:46:23.738Z,22.53
2018-07-23T06:47:23.707Z,22.50
2018-07-23T06:48:23.678Z,22.53
2018-07-23T06:49:23.640Z,22.41
2018-07-23T06:50:23.614Z,22.51
2018-07-23T06:51:23.584Z,22.54
2018-07-23T06:52:23.557Z,22.39
2018-07-23T06:53:23.522Z,22.48
2018-07-23T06:54:23.491Z,22.44
2018-07-23T06:55:23.460Z,22.51
2018-07-23T06:56:23.428Z,22.51
2018-07-23T06:57:23.465Z,22.51
2018-07-23T06:58:23.371Z,22.50
2018-07-23T06:59:23.341Z,22.48
2018-07-23T07:00:23.313Z,22.59
2018-07-23T07:01:23.276Z,22.51
2018-07-23T07:02:23.250Z,22.48
2018-07-23T07:03:23.242Z,22.57
2018-07-23T07:04:23.187Z,22.55
2018-07-23T07:05:23.162Z,22.60
2018-07-23T07:06:23.137Z,22.65
2018-07-23T07:07:23.100Z,22.68
2018-07-23T07:08:23.065Z,22.69
2018-07-23T07:09:23.039Z,22.68
2018-07-23T07:10:23.007Z,22.73
2018-07-23T07:11:22.977Z,22.80
2018-07-23T07:12:22.952Z,22.76
2018-07-23T07:13:22.928Z,22.73
2018-07-23T07:14:22.886Z,22.85
2018-07-23T07:15:22.855Z,22.81
2018-07-23T07:16:22.822Z,22.85
2018-07-23T07:17:22.798Z,22.84
2018-07-23T07:18:22.767Z,22.93
2018-07-23T07:19:22.738Z,22.99
2018-07-23T07:20:22.708Z,23.00
2018-07-23T07:21:22.670Z,23.03
2018-07-23T07:22:22.645Z,22.99
2018-07-23T07:23:22.616Z,23.08
2018-07-23T07:24:22.588Z,22.99
2018-07-23T07:25:22.609Z,22.99
2018-07-23T07:26:22.522Z,22.96
2018-07-23T07:27:22.492Z,23.06
2018-07-23T07:28:22.462Z,22.98
2018-07-23T07:29:22.437Z,23.06
2018-07-23T07:30:22.405Z,23.06
2018-07-23T07:31:22.376Z,23.17
2018-07-23T07:32:22.347Z,23.13
2018-07-23T07:33:22.311Z,23.12
2018-07-23T07:34:22.284Z,23.08
2018-07-23T07:35:22.254Z,23.13
2018-07-23T07:36:22.222Z,23.12
2018-07-23T07:37:22.197Z,23.21
2018-07-23T07:38:22.233Z,23.32
2018-07-23T07:39:22.134Z,23.25
2018-07-23T07:40:22.102Z,23.28
2018-07-23T07:41:22.078Z,23.32
2018-07-23T07:42:22.046Z,23.37
2018-07-23T07:43:22.016Z,23.37
2018-07-23T07:44:21.988Z,23.41
2018-07-23T07:45:21.953Z,23.40
2018-07-23T07:46:21.926Z,23.43
2018-07-23T07:47:21.896Z,23.43
2018-07-23T07:48:21.866Z,23.47
2018-07-23T07:49:21.838Z,23.48
2018-07-23T07:50:21.809Z,23.48
2018-07-23T07:51:21.778Z,23.55
2018-07-23T07:52:21.756Z,23.58
2018-07-23T07:53:21.714Z,23.69
2018-07-23T07:54:21.688Z,23.76
2018-07-23T07:55:21.660Z,23.78
2018-07-23T07:56:21.636Z,23.87
2018-07-23T07:57:21.597Z,23.87
2018-07-23T07:58:21.571Z,23.93
2018-07-23T07:59:21.543Z,24.02
2018-07-23T08:00:21.510Z,24.11
2018-07-23T08:01:21.484Z,24.11
2018-07-23T08:02:21.457Z,24.18
2018-07-23T08:03:21.424Z,24.13
2018-07-23T08:04:21.404Z,24.13
2018-07-23T08:05:21.363Z,24.10
2018-07-23T08:06:21.334Z,24.08
2018-07-23T08:07:21.310Z,24.14
2018-07-23T08:08:21.272Z,24.16
2018-07-23T08:09:21.249Z,24.10
2018-07-23T08:10:21.218Z,24.20
2018-07-23T08:11:21.186Z,24.14
2018-07-23T08:12:21.161Z,24.13
2018-07-23T08:13:21.131Z,24.21
2018-07-23T08:14:21.101Z,24.16
2018-07-23T08:15:21.071Z,24.18
2018-07-23T08:16:21.044Z,24.18
2018-07-23T08:17:21.009Z,24.17
2018-07-23T08:18:20.983Z,24.06
2018-07-23T08:19:20.952Z,24.01
2018-07-23T08:20:20.921Z,23.99
2018-07-23T08:21:20.897Z,24.02
2018-07-23T08:22:20.867Z,24.05
2018-07-23T08:23:20.837Z,24.05
2018-07-23T08:24:20.811Z,24.11
2018-07-23T08:25:20.776Z,24.16
2018-07-23T08:26:20.748Z,24.28
2018-07-23T08:27:20.723Z,24.26
2018-07-23T08:28:20.693Z,24.36
2018-07-23T08:29:20.658Z,24.23
2018-07-23T08:30:20.632Z,24.32
2018-07-23T08:31:20.604Z,24.40
2018-07-23T08:32:20.590Z,24.38
2018-07-23T08:33:20.550Z,24.39
2018-07-23T08:34:20.516Z,24.40
2018-07-23T08:35:20.489Z,24.43
2018-07-23T08:36:20.464Z,24.45
2018-07-23T08:37:20.425Z,24.53
2018-07-23T08:38:20.398Z,24.60
2018-07-23T08:39:20.371Z,24.58
2018-07-23T08:40:20.338Z,24.68
2018-07-23T08:41:20.314Z,24.55
2018-07-23T08:42:20.284Z,24.73
2018-07-23T08:43:20.253Z,24.81
2018-07-23T08:44:20.223Z,24.77
2018-07-23T08:45:20.205Z,24.74
2018-07-23T08:46:20.168Z,24.91
2018-07-23T08:47:20.140Z,24.89
2018-07-23T08:48:20.112Z,24.86
2018-07-23T08:49:20.077Z,24.91
2018-07-23T08:50:20.052Z,24.84
2018-07-23T08:51:20.063Z,24.85
2018-07-23T08:52:19.993Z,24.86
2018-07-23T08:53:19.969Z,24.96
2018-07-23T08:54:19.937Z,24.92
2018-07-23T08:55:19.908Z,24.89
2018-07-23T08:56:19.883Z,24.95
2018-07-23T08:57:19.893Z,24.85
2018-07-23T08:58:19.820Z,24.98
2018-07-23T08:59:19.793Z,24.95
2018-07-23T09:00:19.767Z,24.96
2018-07-23T09:01:19.730Z,25.01
2018-07-23T09:02:19.758Z,25.04
2018-07-23T09:03:19.676Z,25.08
2018-07-23T09:04:19.645Z,25.17
2018-07-23T09:05:19.625Z,25.23
2018-07-23T09:06:19.592Z,25.28
2018-07-23T09:07:19.564Z,25.26
2018-07-23T09:08:19.569Z,25.33
2018-07-23T09:09:19.502Z,25.36
2018-07-23T09:10:19.476Z,25.44
2018-07-23T09:11:19.448Z,25.25
2018-07-23T09:12:19.418Z,25.41
2018-07-23T09:13:19.396Z,25.31
2018-07-23T09:14:19.363Z,25.26
2018-07-23T09:15:19.333Z,25.35
2018-07-23T09:16:19.302Z,25.44
2018-07-23T09:17:19.323Z,25.51
2018-07-23T09:18:19.254Z,25.54
2018-07-23T09:19:19.221Z,25.58
2018-07-23T09:20:19.194Z,25.55
2018-07-23T09:21:19.194Z,25.55
2018-07-23T09:22:19.137Z,25.66
2018-07-23T09:23:19.105Z,25.59
2018-07-23T09:24:19.075Z,25.66
2018-07-23T09:25:19.053Z,25.80
2018-07-23T09:26:19.023Z,25.75
2018-07-23T09:27:18.994Z,25.72
2018-07-23T09:28:18.967Z,25.73
2018-07-23T09:29:18.935Z,25.98
2018-07-23T09:30:18.943Z,25.91
2018-07-23T09:31:18.881Z,25.96
2018-07-23T09:32:18.855Z,25.99
2018-07-23T09:33:18.820Z,25.78
2018-07-23T09:34:18.794Z,25.75
2018-07-23T09:35:18.768Z,25.80
2018-07-23T09:36:18.737Z,25.83
2018-07-23T09:37:18.780Z,25.84
2018-07-23T09:38:18.683Z,25.96
2018-07-23T09:39:18.656Z,25.96
2018-07-23T09:40:18.629Z,25.95
2018-07-23T09:41:18.594Z,25.95
2018-07-23T09:42:18.571Z,25.96
2018-07-23T09:43:18.539Z,25.96
2018-07-23T09:44:18.510Z,26.07
2018-07-23T09:45:18.489Z,26.02
2018-07-23T09:46:18.457Z,26.15
2018-07-23T09:47:18.428Z,26.05
2018-07-23T09:48:18.398Z,26.21
2018-07-23T09:49:18.376Z,26.15
2018-07-23T09:50:18.346Z,26.28
2018-07-23T09:51:18.317Z,26.23
2018-07-23T09:52:18.291Z,26.38
2018-07-23T09:53:18.258Z,26.52
2018-07-23T09:54:18.232Z,26.41
2018-07-23T09:55:18.204Z,26.36
2018-07-23T09:56:18.175Z,26.29
2018-07-23T09:57:18.151Z,26.23
2018-07-23T09:58:18.121Z,26.15
2018-07-23T09:59:18.095Z,26.15
2018-07-23T10:00:18.069Z,26.13
2018-07-23T10:01:18.038Z,26.13
2018-07-23T10:02:18.009Z,26.15
2018-07-23T10:03:18.059Z,26.29
2018-07-23T10:04:17.959Z,26.26
2018-07-23T10:05:17.921Z,26.43
2018-07-23T10:06:17.896Z,26.47
2018-07-23T10:07:17.868Z,26.70
2018-07-23T10:21:16.523Z,26.09
2018-07-23T10:22:16.453Z,26.06
2018-07-23T10:23:16.415Z,26.19
2018-07-23T10:24:16.385Z,26.23
2018-07-23T10:25:16.348Z,26.26
2018-07-23T10:26:16.318Z,26.28
2018-07-23T10:27:16.287Z,26.23
2018-07-23T10:28:16.258Z,26.34
2018-07-23T10:29:16.233Z,26.41
2018-07-23T10:30:16.210Z,26.41
2018-07-23T10:31:16.170Z,26.45
2018-07-23T10:32:16.143Z,26.48
2018-07-23T10:33:16.108Z,26.38
2018-07-23T10:34:16.079Z,26.44
2018-07-23T10:35:16.088Z,26.28
2018-07-23T10:36:16.038Z,26.41
2018-07-23T10:37:15.992Z,26.41
2018-07-23T10:38:15.965Z,26.34
2018-07-23T10:39:15.937Z,26.38
2018-07-23T10:40:15.909Z,26.28
2018-07-23T10:41:15.965Z,26.37
2018-07-23T10:42:15.852Z,26.44
2018-07-23T10:43:15.827Z,26.53
2018-07-23T10:44:15.798Z,26.52
2018-07-23T10:45:15.764Z,26.51
2018-07-23T10:46:15.740Z,26.66
2018-07-23T10:47:15.710Z,26.55
2018-07-23T10:48:15.679Z,26.53
2018-07-23T10:49:15.659Z,26.65
2018-07-23T10:50:15.627Z,26.71
2018-07-23T10:51:15.598Z,26.73
2018-07-23T10:52:15.568Z,26.80
2018-07-23T10:53:15.546Z,26.77
2018-07-23T10:54:15.515Z,26.75
2018-07-23T10:55:15.487Z,26.71
2018-07-23T10:56:15.461Z,26.71
2018-07-23T10:57:15.440Z,26.75
2018-07-23T10:58:15.401Z,26.75
2018-07-23T10:59:15.374Z,26.88
2018-07-23T11:00:15.346Z,26.90
2018-07-23T11:01:15.324Z,26.89
2018-07-23T11:02:15.292Z,26.89
2018-07-23T11:03:15.265Z,26.89
2018-07-23T11:04:15.269Z,26.95
2018-07-23T11:05:15.206Z,26.93
2018-07-23T11:06:15.180Z,26.96
2018-07-23T11:07:15.173Z,26.99
2018-07-23T11:08:15.129Z,26.93
2018-07-23T11:09:15.099Z,26.95
2018-07-23T11:10:15.099Z,27.08
2018-07-23T11:11:15.047Z,27.11
2018-07-23T11:12:15.013Z,27.21
2018-07-23T11:13:14.994Z,27.26
2018-07-23T11:14:14.961Z,27.25
2018-07-23T11:15:14.938Z,27.26
2018-07-23T11:16:14.914Z,27.18
2018-07-23T11:17:14.875Z,27.11
2018-07-23T11:18:14.850Z,27.32
2018-07-23T11:19:14.831Z,27.17
2018-07-23T11:20:14.795Z,27.36
2018-07-23T11:21:14.778Z,27.37
2018-07-23T11:22:14.746Z,27.36
2018-07-23T11:23:14.714Z,27.35
2018-07-23T11:24:14.686Z,27.44
2018-07-23T11:25:38.504Z,27.47
2018-07-23T11:26:14.690Z,27.32
2018-07-23T11:27:14.606Z,27.32
2018-07-23T11:28:14.584Z,27.25
2018-07-23T11:29:14.551Z,27.26
2018-07-23T11:30:14.525Z,27.20
2018-07-23T11:31:14.497Z,27.11
2018-07-23T11:32:14.468Z,27.14
2018-07-23T11:33:14.447Z,27.12
2018-07-23T11:34:14.415Z,27.11
2018-07-23T11:35:14.389Z,27.10
2018-07-23T11:36:14.364Z,27.15
2018-07-23T11:37:14.329Z,26.99
2018-07-23T11:38:14.304Z,27.05
2018-07-23T11:39:14.279Z,27.02
2018-07-23T11:40:14.254Z,26.99
2018-07-23T11:41:14.220Z,27.10
2018-07-23T11:42:14.196Z,27.14
2018-07-23T11:43:14.167Z,27.15
2018-07-23T11:44:14.140Z,27.22
2018-07-23T11:45:14.123Z,27.27
2018-07-23T11:46:24.449Z,27.35
2018-07-23T11:47:14.069Z,27.44
2018-07-23T11:48:14.036Z,27.42
2018-07-23T11:49:14.001Z,27.42
2018-07-23T11:50:13.976Z,27.40
2018-07-23T11:51:13.948Z,27.48
2018-07-23T11:52:14.354Z,27.49
2018-07-23T11:53:13.936Z,27.37
2018-07-23T11:54:13.870Z,27.21
2018-07-23T11:55:13.841Z,27.29
2018-07-23T11:56:13.818Z,27.10
2018-07-23T11:57:13.790Z,27.10
2018-07-23T11:58:13.760Z,27.05
2018-07-23T11:59:13.732Z,27.02
2018-07-23T12:00:13.713Z,26.97
2018-07-23T12:01:13.676Z,26.95
2018-07-23T12:02:13.651Z,26.88
2018-07-23T12:03:13.623Z,26.92
2018-07-23T12:04:13.617Z,26.84
2018-07-23T12:05:13.575Z,26.89
2018-07-23T12:06:13.541Z,26.90
2018-07-23T12:07:13.514Z,26.88
2018-07-23T12:08:13.489Z,26.96
2018-07-23T12:09:13.459Z,27.00
2018-07-23T12:10:13.431Z,26.96
2018-07-23T12:11:13.408Z,27.05
2018-07-23T12:12:13.380Z,27.08
2018-07-23T12:13:13.347Z,27.11
2018-07-23T12:14:13.321Z,27.15
2018-07-23T12:15:13.300Z,27.20
2018-07-23T12:16:13.265Z,27.22
2018-07-23T12:17:13.265Z,27.14
2018-07-23T12:18:13.229Z,27.14
2018-07-23T12:19:13.189Z,27.21
2018-07-23T12:20:13.163Z,27.29
2018-07-23T12:21:13.128Z,27.21
2018-07-23T12:22:13.102Z,27.37
2018-07-23T12:23:13.080Z,27.35
2018-07-23T12:24:13.048Z,27.36
2018-07-23T12:25:13.029Z,27.37
2018-07-23T12:26:12.996Z,27.35
2018-07-23T12:27:12.965Z,27.35
2018-07-23T12:28:12.938Z,27.47
2018-07-23T12:29:12.916Z,27.39
2018-07-23T12:30:12.886Z,27.35
2018-07-23T12:31:12.858Z,27.44
2018-07-23T12:32:12.836Z,27.54
2018-07-23T12:33:12.803Z,27.52
2018-07-23T12:34:12.780Z,27.51
2018-07-23T12:35:12.750Z,27.54
2018-07-23T12:36:12.720Z,27.52
2018-07-23T12:37:12.701Z,27.64
2018-07-23T12:38:12.670Z,27.63
2018-07-23T12:39:12.641Z,27.65
2018-07-23T12:40:12.618Z,27.64
2018-07-23T12:41:12.583Z,27.48
2018-07-23T12:42:12.558Z,27.49
2018-07-23T12:43:12.536Z,27.52
2018-07-23T12:44:12.507Z,27.59
2018-07-23T12:45:12.476Z,27.67
2018-07-23T12:46:12.452Z,27.77
2018-07-23T12:47:12.504Z,27.92
2018-07-23T12:48:12.396Z,27.78
2018-07-23T12:49:12.373Z,27.93
2018-07-23T12:50:12.346Z,27.85
2018-07-23T12:51:12.317Z,27.87
2018-07-23T12:52:12.293Z,27.93
2018-07-23T12:53:12.260Z,27.96
2018-07-23T12:54:12.233Z,27.96
2018-07-23T12:55:12.207Z,27.95
2018-07-23T12:56:12.178Z,28.14
2018-07-23T12:57:12.157Z,28.15
2018-07-23T12:58:12.127Z,28.23
2018-07-23T12:59:12.099Z,28.14
2018-07-23T13:00:12.070Z,28.15
2018-07-23T13:01:12.051Z,28.11
2018-07-23T13:02:12.022Z,27.86
2018-07-23T13:03:11.994Z,27.85
2018-07-23T13:04:11.968Z,27.78
2018-07-23T13:05:11.936Z,27.82
2018-07-23T13:06:11.911Z,27.77
2018-07-23T13:07:11.889Z,27.78
2018-07-23T13:08:11.896Z,27.83
2018-07-23T13:09:11.836Z,27.80
2018-07-23T13:10:11.806Z,27.86
2018-07-23T13:11:11.778Z,27.89
2018-07-23T13:12:11.754Z,27.85
2018-07-23T13:13:11.723Z,27.82
2018-07-23T13:14:11.695Z,27.83
2018-07-23T13:15:11.672Z,27.87
2018-07-23T13:16:11.647Z,28.02
2018-07-23T13:17:11.614Z,28.22
2018-07-23T13:18:11.589Z,28.30
2018-07-23T13:19:11.604Z,28.35
2018-07-23T13:20:11.534Z,28.38
2018-07-23T13:21:11.515Z,28.29